sensor_id;sensor_type;location;lat;lon;timestamp;pressure;altitude;pressure_sealevel;temperature;humidity
7337;BME280;54510;42.016;23.098;2022-08-04T00:00:23;-21786.63;;;23.86;53.32
7337;BME280;54510;42.016;23.098;2022-08-04T00:02:56;-21783.63;;;23.75;53.18
7337;BME280;54510;42.016;23.098;2022-08-04T00:05:29;-21778.19;;;23.55;53.70
7337;BME280;54510;42.016;23.098;2022-08-04T00:10:32;-21788.00;;;23.91;53.52
7337;BME280;54510;42.016;23.098;2022-08-04T00:13:02;-21778.31;;;23.55;54.35
7337;BME280;54510;42.016;23.098;2022-08-04T00:15:28;-21776.00;;;23.47;54.48
7337;BME280;54510;42.016;23.098;2022-08-04T00:18:03;-21774.22;;;23.40;54.79
7337;BME280;54510;42.016;23.098;2022-08-04T00:20:31;-21774.50;;;23.41;54.81
7337;BME280;54510;42.016;23.098;2022-08-04T00:22:59;-21772.72;;;23.35;55.16
7337;BME280;54510;42.016;23.098;2022-08-04T00:25:25;-21776.53;;;23.49;54.19
7337;BME280;54510;42.016;23.098;2022-08-04T00:27:53;-21783.22;;;23.74;54.03
7337;BME280;54510;42.016;23.098;2022-08-04T00:30:19;-21778.31;;;23.55;54.30
7337;BME280;54510;42.016;23.098;2022-08-04T00:32:45;-21775.44;;;23.45;54.68
7337;BME280;54510;42.016;23.098;2022-08-04T00:35:15;-21773.94;;;23.39;54.92
7337;BME280;54510;42.016;23.098;2022-08-04T00:37:43;-21767.66;;;23.16;55.35
7337;BME280;54510;42.016;23.098;2022-08-04T00:40:22;-21773.25;;;23.37;55.33
7337;BME280;54510;42.016;23.098;2022-08-04T00:43:07;-21768.75;;;23.20;55.41
7337;BME280;54510;42.016;23.098;2022-08-04T00:51:16;-21765.34;;;23.07;56.58
7337;BME280;54510;42.016;23.098;2022-08-04T01:05:11;-21767.81;;;23.16;56.22
7337;BME280;54510;42.016;23.098;2022-08-04T01:08:05;-21765.63;;;23.08;56.64
7337;BME280;54510;42.016;23.098;2022-08-04T01:11:07;-21769.84;;;23.24;55.86
7337;BME280;54510;42.016;23.098;2022-08-04T01:16:40;-21766.84;;;23.13;56.38
7337;BME280;54510;42.016;23.098;2022-08-04T01:19:37;-21772.16;;;23.33;55.70
7337;BME280;54510;42.016;23.098;2022-08-04T01:28:12;-21769.16;;;23.21;56.12
7337;BME280;54510;42.016;23.098;2022-08-04T01:30:45;-21769.31;;;23.22;56.33
7337;BME280;54510;42.016;23.098;2022-08-04T01:33:13;-21759.06;;;22.84;56.86
7337;BME280;54510;42.016;23.098;2022-08-04T01:35:47;-21759.06;;;22.84;57.28
7337;BME280;54510;42.016;23.098;2022-08-04T01:40:41;-21760.03;;;22.88;56.67
7337;BME280;54510;42.016;23.098;2022-08-04T01:43:09;-21762.47;;;22.97;56.24
7337;BME280;54510;42.016;23.098;2022-08-04T01:45:36;-21763.56;;;23.01;56.30
7337;BME280;54510;42.016;23.098;2022-08-04T01:48:02;-21765.88;;;23.09;56.18
7337;BME280;54510;42.016;23.098;2022-08-04T01:50:32;-21765.47;;;23.08;56.44
7337;BME280;54510;42.016;23.098;2022-08-04T01:52:59;-21759.59;;;22.86;56.68
7337;BME280;54510;42.016;23.098;2022-08-04T01:55:27;-21751.97;;;22.58;58.03
7337;BME280;54510;42.016;23.098;2022-08-04T01:57:53;-21753.59;;;22.64;57.48
7337;BME280;54510;42.016;23.098;2022-08-04T02:00:23;-21752.09;;;22.58;57.77
7337;BME280;54510;42.016;23.098;2022-08-04T02:02:51;-21753.03;;;22.62;57.80
7337;BME280;54510;42.016;23.098;2022-08-04T02:05:20;-21747.31;;;22.40;58.57
7337;BME280;54510;42.016;23.098;2022-08-04T02:08:21;-21749.22;;;22.48;57.93
7337;BME280;54510;42.016;23.098;2022-08-04T02:13:30;-21753.88;;;22.65;57.65
7337;BME280;54510;42.016;23.098;2022-08-04T02:16:07;-21755.22;;;22.70;57.25
7337;BME280;54510;42.016;23.098;2022-08-04T02:21:18;-21752.09;;;22.58;58.09
7337;BME280;54510;42.016;23.098;2022-08-04T02:23:48;-21750.84;;;22.54;57.69
7337;BME280;54510;42.016;23.098;2022-08-04T02:26:17;-21748.13;;;22.43;58.55
7337;BME280;54510;42.016;23.098;2022-08-04T02:36:30;-21753.19;;;22.62;58.24
7337;BME280;54510;42.016;23.098;2022-08-04T02:39:00;-21749.63;;;22.49;58.23
7337;BME280;54510;42.016;23.098;2022-08-04T02:41:28;-21744.31;;;22.29;58.45
7337;BME280;54510;42.016;23.098;2022-08-04T02:43:57;-21742.94;;;22.24;59.13
7337;BME280;54510;42.016;23.098;2022-08-04T02:46:23;-21749.50;;;22.49;58.55
7337;BME280;54510;42.016;23.098;2022-08-04T02:48:51;-21742.81;;;22.24;59.43
7337;BME280;54510;42.016;23.098;2022-08-04T02:51:25;-21743.47;;;22.26;59.15
7337;BME280;54510;42.016;23.098;2022-08-04T02:53:54;-21737.06;;;22.02;59.83
7337;BME280;54510;42.016;23.098;2022-08-04T02:56:22;-21746.75;;;22.38;58.45
7337;BME280;54510;42.016;23.098;2022-08-04T02:58:51;-21740.19;;;22.14;59.22
7337;BME280;54510;42.016;23.098;2022-08-04T03:01:17;-21737.47;;;22.04;59.60
7337;BME280;54510;42.016;23.098;2022-08-04T03:03:52;-21741.03;;;22.17;58.89
7337;BME280;54510;42.016;23.098;2022-08-04T03:12:14;-21723.78;;;21.53;61.36
7337;BME280;54510;42.016;23.098;2022-08-04T03:15:12;-21729.94;;;21.76;60.26
7337;BME280;54510;42.016;23.098;2022-08-04T03:25:49;-21742.81;;;22.24;58.98
7337;BME280;54510;42.016;23.098;2022-08-04T03:28:49;-21733.22;;;21.88;60.07
7337;BME280;54510;42.016;23.098;2022-08-04T03:34:33;-21728.72;;;21.72;61.22
7337;BME280;54510;42.016;23.098;2022-08-04T03:59:05;-21738.00;;;22.06;59.79
7337;BME280;54510;42.016;23.098;2022-08-04T04:04:50;-21734.72;;;21.94;59.55
7337;BME280;54510;42.016;23.098;2022-08-04T04:16:45;-21734.72;;;21.94;60.90
7337;BME280;54510;42.016;23.098;2022-08-04T04:26:56;-21740.47;;;22.15;60.13
7337;BME280;54510;42.016;23.098;2022-08-04T04:30:02;-21748.69;;;22.45;58.93
7337;BME280;54510;42.016;23.098;2022-08-04T04:32:42;-21748.28;;;22.44;58.82
7337;BME280;54510;42.016;23.098;2022-08-04T04:38:12;-21739.66;;;22.12;60.22
7337;BME280;54510;42.016;23.098;2022-08-04T04:43:52;-21755.50;;;22.71;59.16
7337;BME280;54510;42.016;23.098;2022-08-04T04:46:48;-21755.91;;;22.72;58.18
7337;BME280;54510;42.016;23.098;2022-08-04T04:49:44;-21756.59;;;22.75;58.56
7337;BME280;54510;42.016;23.098;2022-08-04T04:52:35;-21764.66;;;23.05;58.07
7337;BME280;54510;42.016;23.098;2022-08-04T04:55:16;-21754.28;;;22.66;59.28
7337;BME280;54510;42.016;23.098;2022-08-04T04:57:45;-21755.78;;;22.72;59.91
7337;BME280;54510;42.016;23.098;2022-08-04T05:00:12;-21755.78;;;22.72;59.88
7337;BME280;54510;42.016;23.098;2022-08-04T05:15:52;-21784.72;;;23.79;56.66
7337;BME280;54510;42.016;23.098;2022-08-04T05:18:23;-21791.53;;;24.05;56.47
7337;BME280;54510;42.016;23.098;2022-08-04T05:20:54;-21800.53;;;24.38;55.20
7337;BME280;54510;42.016;23.098;2022-08-04T05:23:25;-21801.09;;;24.40;55.04
7337;BME280;54510;42.016;23.098;2022-08-04T05:26:28;-21797.41;;;24.26;55.90
7337;BME280;54510;42.016;23.098;2022-08-04T05:28:55;-21797.81;;;24.28;56.20
7337;BME280;54510;42.016;23.098;2022-08-04T05:31:32;-21794.28;;;24.15;56.15
7337;BME280;54510;42.016;23.098;2022-08-04T05:34:29;-21798.09;;;24.29;55.37
7337;BME280;54510;42.016;23.098;2022-08-04T05:36:58;-21804.78;;;24.54;54.55
7337;BME280;54510;42.016;23.098;2022-08-04T05:39:27;-21806.13;;;24.59;54.46
7337;BME280;54510;42.016;23.098;2022-08-04T05:41:54;-21808.19;;;24.66;54.54
7337;BME280;54510;42.016;23.098;2022-08-04T05:44:22;-21812.66;;;24.83;54.25
7337;BME280;54510;42.016;23.098;2022-08-04T05:46:50;-21814.03;;;24.88;54.53
7337;BME280;54510;42.016;23.098;2022-08-04T05:49:17;-21810.09;;;24.73;54.76
7337;BME280;54510;42.016;23.098;2022-08-04T05:51:44;-21813.06;;;24.85;54.80
7337;BME280;54510;42.016;23.098;2022-08-04T05:54:12;-21816.91;;;24.99;54.51
7337;BME280;54510;42.016;23.098;2022-08-04T05:56:39;-21808.03;;;24.66;55.33
7337;BME280;54510;42.016;23.098;2022-08-04T05:59:05;-21812.13;;;24.81;55.29
7337;BME280;54510;42.016;23.098;2022-08-04T06:01:33;-21818.25;;;25.04;54.66
7337;BME280;54510;42.016;23.098;2022-08-04T06:04:00;-21819.47;;;25.08;54.77
7337;BME280;54510;42.016;23.098;2022-08-04T06:06:28;-21822.63;;;25.20;54.39
7337;BME280;54510;42.016;23.098;2022-08-04T06:08:54;-21830.50;;;25.49;53.66
7337;BME280;54510;42.016;23.098;2022-08-04T06:11:20;-21822.63;;;25.20;54.39
7337;BME280;54510;42.016;23.098;2022-08-04T06:13:52;-21823.72;;;25.24;54.14
7337;BME280;54510;42.016;23.098;2022-08-04T06:16:22;-21832.69;;;25.58;53.96
7337;BME280;54510;42.016;23.098;2022-08-04T06:18:50;-21831.88;;;25.54;52.97
7337;BME280;54510;42.016;23.098;2022-08-04T06:21:20;-21826.16;;;25.33;53.74
7337;BME280;54510;42.016;23.098;2022-08-04T06:23:48;-21831.47;;;25.53;52.90
7337;BME280;54510;42.016;23.098;2022-08-04T06:26:16;-21832.00;;;25.55;53.08
7337;BME280;54510;42.016;23.098;2022-08-04T06:28:49;-21837.19;;;25.74;52.91
7337;BME280;54510;42.016;23.098;2022-08-04T06:31:16;-21843.69;;;25.99;52.32
7337;BME280;54510;42.016;23.098;2022-08-04T06:34:06;-21840.72;;;25.87;52.63
7337;BME280;54510;42.016;23.098;2022-08-04T06:36:33;-21841.53;;;25.90;52.58
7337;BME280;54510;42.016;23.098;2022-08-04T06:39:03;-21848.72;;;26.17;52.05
7337;BME280;54510;42.016;23.098;2022-08-04T06:41:29;-21857.44;;;26.50;51.09
7337;BME280;54510;42.016;23.098;2022-08-04T06:43:58;-21848.59;;;26.17;51.54
7337;BME280;54510;42.016;23.098;2022-08-04T06:46:25;-21848.19;;;26.15;51.70
7337;BME280;54510;42.016;23.098;2022-08-04T06:48:52;-21847.09;;;26.11;51.14
7337;BME280;54510;42.016;23.098;2022-08-04T06:51:19;-21851.19;;;26.26;51.25
7337;BME280;54510;42.016;23.098;2022-08-04T06:53:46;-21854.44;;;26.39;50.73
7337;BME280;54510;42.016;23.098;2022-08-04T06:56:13;-21863.13;;;26.71;50.13
7337;BME280;54510;42.016;23.098;2022-08-04T06:58:41;-21864.50;;;26.76;50.12
7337;BME280;54510;42.016;23.098;2022-08-04T07:01:08;-21861.78;;;26.66;50.22
7337;BME280;54510;42.016;23.098;2022-08-04T07:03:35;-21863.13;;;26.71;49.72
7337;BME280;54510;42.016;23.098;2022-08-04T07:06:01;-21860.16;;;26.60;50.04
7337;BME280;54510;42.016;23.098;2022-08-04T07:08:28;-21864.75;;;26.77;50.29
7337;BME280;54510;42.016;23.098;2022-08-04T07:10:53;-21866.81;;;26.85;49.39
7337;BME280;54510;42.016;23.098;2022-08-04T07:13:21;-21865.44;;;26.80;49.25
7337;BME280;54510;42.016;23.098;2022-08-04T07:15:48;-21867.75;;;26.88;49.33
7337;BME280;54510;42.016;23.098;2022-08-04T07:18:14;-21873.19;;;27.08;48.84
7337;BME280;54510;42.016;23.098;2022-08-04T07:20:45;-21872.78;;;27.07;48.55
7337;BME280;54510;42.016;23.098;2022-08-04T07:23:12;-21876.59;;;27.21;48.53
7337;BME280;54510;42.016;23.098;2022-08-04T07:25:42;-21880.09;;;27.34;47.90
7337;BME280;54510;42.016;23.098;2022-08-04T07:28:07;-21874.69;;;27.14;47.74
7337;BME280;54510;42.016;23.098;2022-08-04T07:30:33;-21883.22;;;27.46;48.03
7337;BME280;54510;42.016;23.098;2022-08-04T07:33:00;-21889.75;;;27.70;47.76
7337;BME280;54510;42.016;23.098;2022-08-04T07:35:27;-21882.94;;;27.45;47.69
7337;BME280;54510;42.016;23.098;2022-08-04T07:37:53;-21892.72;;;27.81;47.53
7337;BME280;54510;42.016;23.098;2022-08-04T07:40:18;-21894.22;;;27.87;46.90
7337;BME280;54510;42.016;23.098;2022-08-04T07:42:45;-21893.53;;;27.84;47.19
7337;BME280;54510;42.016;23.098;2022-08-04T07:45:10;-21887.97;;;27.64;46.85
7337;BME280;54510;42.016;23.098;2022-08-04T07:47:37;-21899.91;;;28.08;46.62
7337;BME280;54510;42.016;23.098;2022-08-04T07:50:08;-21908.16;;;28.39;46.21
7337;BME280;54510;42.016;23.098;2022-08-04T07:52:33;-21910.47;;;28.48;45.90
7337;BME280;54510;42.016;23.098;2022-08-04T07:55:01;-21918.34;;;28.77;45.44
7337;BME280;54510;42.016;23.098;2022-08-04T07:57:27;-21918.47;;;28.78;45.11
7337;BME280;54510;42.016;23.098;2022-08-04T07:59:53;-21918.88;;;28.79;44.74
7337;BME280;54510;42.016;23.098;2022-08-04T08:02:19;-21919.41;;;28.81;44.49
7337;BME280;54510;42.016;23.098;2022-08-04T08:04:46;-21925.50;;;29.04;44.10
7337;BME280;54510;42.016;23.098;2022-08-04T08:07:12;-21928.47;;;29.15;44.34
7337;BME280;54510;42.016;23.098;2022-08-04T08:09:38;-21924.44;;;29.00;43.68
7337;BME280;54510;42.016;23.098;2022-08-04T08:12:06;-21927.25;;;29.11;44.09
7337;BME280;54510;42.016;23.098;2022-08-04T08:14:32;-21931.84;;;29.28;44.03
7337;BME280;54510;42.016;23.098;2022-08-04T08:16:59;-21932.53;;;29.30;43.88
7337;BME280;54510;42.016;23.098;2022-08-04T08:19:27;-21932.94;;;29.32;43.84
7337;BME280;54510;42.016;23.098;2022-08-04T08:21:53;-21939.31;;;29.56;43.63
7337;BME280;54510;42.016;23.098;2022-08-04T08:24:18;-21945.25;;;29.78;43.55
7337;BME280;54510;42.016;23.098;2022-08-04T08:26:44;-21946.72;;;29.83;42.47
7337;BME280;54510;42.016;23.098;2022-08-04T08:29:10;-21947.00;;;29.84;40.88
7337;BME280;54510;42.016;23.098;2022-08-04T08:31:36;-21954.84;;;30.14;40.39
7337;BME280;54510;42.016;23.098;2022-08-04T08:34:01;-21954.97;;;30.14;39.84
7337;BME280;54510;42.016;23.098;2022-08-04T08:36:35;-21954.72;;;30.13;39.49
7337;BME280;54510;42.016;23.098;2022-08-04T08:41:54;-21969.69;;;30.70;38.25
7337;BME280;54510;42.016;23.098;2022-08-04T08:44:40;-21975.91;;;30.93;38.13
7337;BME280;54510;42.016;23.098;2022-08-04T09:04:31;-21973.34;;;30.83;38.41
7337;BME280;54510;42.016;23.098;2022-08-04T09:10:18;-21979.41;;;31.06;37.82
7337;BME280;54510;42.016;23.098;2022-08-04T09:13:02;-21980.09;;;31.09;37.03
7337;BME280;54510;42.016;23.098;2022-08-04T09:15:48;-21980.63;;;31.11;36.50
7337;BME280;54510;42.016;23.098;2022-08-04T09:18:35;-21985.88;;;31.30;36.36
7337;BME280;54510;42.016;23.098;2022-08-04T09:21:17;-21986.03;;;31.31;36.51
7337;BME280;54510;42.016;23.098;2022-08-04T09:24:11;-22003.13;;;31.95;36.14
7337;BME280;54510;42.016;23.098;2022-08-04T09:26:45;-22011.09;;;32.25;35.59
7337;BME280;54510;42.016;23.098;2022-08-04T09:29:19;-22018.34;;;32.52;35.15
7337;BME280;54510;42.016;23.098;2022-08-04T09:32:09;-22032.06;;;33.04;33.96
7337;BME280;54510;42.016;23.098;2022-08-04T09:34:56;-22021.84;;;32.66;33.89
7337;BME280;54510;42.016;23.098;2022-08-04T09:37:45;-22027.63;;;32.87;33.49
7337;BME280;54510;42.016;23.098;2022-08-04T09:40:26;-22033.16;;;33.08;33.06
7337;BME280;54510;42.016;23.098;2022-08-04T09:43:19;-22029.25;;;32.93;33.31
7337;BME280;54510;42.016;23.098;2022-08-04T09:46:01;-22024.69;;;32.76;34.08
7337;BME280;54510;42.016;23.098;2022-08-04T09:57:25;-22036.50;;;33.21;33.42
7337;BME280;54510;42.016;23.098;2022-08-04T10:02:37;-22041.75;;;33.41;33.21
7337;BME280;54510;42.016;23.098;2022-08-04T10:05:10;-22040.41;;;33.36;32.04
7337;BME280;54510;42.016;23.098;2022-08-04T10:15:39;-22051.03;;;33.76;29.50
7337;BME280;54510;42.016;23.098;2022-08-04T10:21:04;-22075.97;;;34.70;29.33
7337;BME280;54510;42.016;23.098;2022-08-04T10:26:32;-22080.41;;;34.86;28.86
7337;BME280;54510;42.016;23.098;2022-08-04T10:29:05;-22083.34;;;34.98;28.58
7337;BME280;54510;42.016;23.098;2022-08-04T10:31:36;-22081.75;;;34.92;27.35
7337;BME280;54510;42.016;23.098;2022-08-04T10:34:17;-22069.13;;;34.44;27.82
7337;BME280;54510;42.016;23.098;2022-08-04T10:36:52;-22063.63;;;34.23;28.04
7337;BME280;54510;42.016;23.098;2022-08-04T10:39:28;-22053.03;;;33.83;28.40
7337;BME280;54510;42.016;23.098;2022-08-04T10:42:20;-22062.97;;;34.21;27.20
7337;BME280;54510;42.016;23.098;2022-08-04T10:45:22;-22064.56;;;34.27;27.47
7337;BME280;54510;42.016;23.098;2022-08-04T10:48:01;-22051.81;;;33.79;27.03
7337;BME280;54510;42.016;23.098;2022-08-04T10:50:33;-22042.69;;;33.44;27.86
7337;BME280;54510;42.016;23.098;2022-08-04T10:53:08;-22027.22;;;32.86;28.59
7337;BME280;54510;42.016;23.098;2022-08-04T10:55:41;-22043.09;;;33.46;27.77
7337;BME280;54510;42.016;23.098;2022-08-04T10:58:13;-22050.09;;;33.72;26.60
7337;BME280;54510;42.016;23.098;2022-08-04T11:00:42;-22057.06;;;33.98;26.42
7337;BME280;54510;42.016;23.098;2022-08-04T11:03:20;-22081.22;;;34.90;25.32
7337;BME280;54510;42.016;23.098;2022-08-04T11:05:57;-22057.31;;;33.99;25.73
7337;BME280;54510;42.016;23.098;2022-08-04T11:08:38;-22079.06;;;34.81;25.70
7337;BME280;54510;42.016;23.098;2022-08-04T11:16:30;-22078.66;;;34.80;26.38
7337;BME280;54510;42.016;23.098;2022-08-04T11:22:13;-22069.53;;;34.45;26.89
7337;BME280;54510;42.016;23.098;2022-08-04T11:24:53;-22080.13;;;34.85;26.98
7337;BME280;54510;42.016;23.098;2022-08-04T11:27:36;-22080.28;;;34.86;27.23
7337;BME280;54510;42.016;23.098;2022-08-04T11:30:08;-22084.69;;;35.03;27.46
7337;BME280;54510;42.016;23.098;2022-08-04T11:32:48;-22073.44;;;34.60;27.35
7337;BME280;54510;42.016;23.098;2022-08-04T11:35:30;-22069.13;;;34.44;26.86
7337;BME280;54510;42.016;23.098;2022-08-04T11:38:26;-22070.34;;;34.48;27.35
7337;BME280;54510;42.016;23.098;2022-08-04T11:40:59;-22073.44;;;34.60;26.59
7337;BME280;54510;42.016;23.098;2022-08-04T11:43:43;-22069.13;;;34.44;26.05
7337;BME280;54510;42.016;23.098;2022-08-04T11:46:17;-22063.91;;;34.24;26.38
7337;BME280;54510;42.016;23.098;2022-08-04T11:48:57;-22076.53;;;34.72;26.61
7337;BME280;54510;42.016;23.098;2022-08-04T11:51:26;-22064.44;;;34.26;27.35
7337;BME280;54510;42.016;23.098;2022-08-04T11:53:53;-22061.63;;;34.16;27.12
7337;BME280;54510;42.016;23.098;2022-08-04T11:56:19;-22071.00;;;34.51;27.08
7337;BME280;54510;42.016;23.098;2022-08-04T11:58:45;-22080.28;;;34.86;27.05
7337;BME280;54510;42.016;23.098;2022-08-04T12:01:24;-22075.31;;;34.67;27.09
7337;BME280;54510;42.016;23.098;2022-08-04T12:04:09;-22079.47;;;34.83;26.60
7337;BME280;54510;42.016;23.098;2022-08-04T12:06:54;-22070.06;;;34.47;26.93
7337;BME280;54510;42.016;23.098;2022-08-04T12:09:29;-22080.00;;;34.85;26.63
7337;BME280;54510;42.016;23.098;2022-08-04T12:14:50;-22077.59;;;34.76;26.39
7337;BME280;54510;42.016;23.098;2022-08-04T12:17:26;-22088.03;;;35.15;25.80
7337;BME280;54510;42.016;23.098;2022-08-04T12:19:56;-22092.47;;;35.32;25.18
7337;BME280;54510;42.016;23.098;2022-08-04T12:22:24;-22091.53;;;35.29;25.08
7337;BME280;54510;42.016;23.098;2022-08-04T12:25:04;-22100.50;;;35.62;25.19
7337;BME280;54510;42.016;23.098;2022-08-04T12:30:17;-22103.44;;;35.74;25.40
7337;BME280;54510;42.016;23.098;2022-08-04T12:35:54;-22101.03;;;35.64;25.55
7337;BME280;54510;42.016;23.098;2022-08-04T12:38:25;-22105.31;;;35.81;25.81
7337;BME280;54510;42.016;23.098;2022-08-04T12:40:56;-22110.13;;;35.99;25.21
7337;BME280;54510;42.016;23.098;2022-08-04T12:45:58;-22103.84;;;35.75;25.25
7337;BME280;54510;42.016;23.098;2022-08-04T12:48:26;-22103.56;;;35.74;25.24
7337;BME280;54510;42.016;23.098;2022-08-04T12:50:54;-22112.81;;;36.09;24.54
7337;BME280;54510;42.016;23.098;2022-08-04T12:53:29;-22112.25;;;36.07;24.75
7337;BME280;54510;42.016;23.098;2022-08-04T12:55:57;-22118.16;;;36.29;25.17
7337;BME280;54510;42.016;23.098;2022-08-04T12:58:24;-22114.13;;;36.14;25.41
7337;BME280;54510;42.016;23.098;2022-08-04T13:01:24;-22122.97;;;36.48;24.70
7337;BME280;54510;42.016;23.098;2022-08-04T13:03:54;-22115.88;;;36.21;24.96
7337;BME280;54510;42.016;23.098;2022-08-04T13:06:37;-22124.16;;;36.52;24.40
7337;BME280;54510;42.016;23.098;2022-08-04T13:09:07;-22120.81;;;36.39;24.38
7337;BME280;54510;42.016;23.098;2022-08-04T13:11:48;-22130.19;;;36.75;23.47
7337;BME280;54510;42.016;23.098;2022-08-04T13:14:15;-22128.19;;;36.67;23.90
7337;BME280;54510;42.016;23.098;2022-08-04T13:16:42;-22132.19;;;36.83;23.11
7337;BME280;54510;42.016;23.098;2022-08-04T13:19:08;-22137.38;;;37.02;23.64
7337;BME280;54510;42.016;23.098;2022-08-04T13:21:40;-22125.63;;;36.58;24.38
7337;BME280;54510;42.016;23.098;2022-08-04T13:24:10;-22120.97;;;36.40;24.21
7337;BME280;54510;42.016;23.098;2022-08-04T13:27:04;-22138.19;;;37.05;23.64
7337;BME280;54510;42.016;23.098;2022-08-04T13:29:38;-22146.34;;;37.36;23.37
7337;BME280;54510;42.016;23.098;2022-08-04T13:32:05;-22151.28;;;37.55;22.77
7337;BME280;54510;42.016;23.098;2022-08-04T13:34:34;-22171.00;;;38.30;22.78
7337;BME280;54510;42.016;23.098;2022-08-04T13:37:01;-22172.19;;;38.34;22.02
7337;BME280;54510;42.016;23.098;2022-08-04T13:39:27;-22161.81;;;37.95;22.72
7337;BME280;54510;42.016;23.098;2022-08-04T13:41:55;-22158.59;;;37.83;22.24
7337;BME280;54510;42.016;23.098;2022-08-04T13:44:26;-22147.25;;;37.40;22.67
7337;BME280;54510;42.016;23.098;2022-08-04T13:46:56;-22134.06;;;36.90;22.52
7337;BME280;54510;42.016;23.098;2022-08-04T13:49:23;-22143.66;;;37.26;22.40
7337;BME280;54510;42.016;23.098;2022-08-04T13:52:03;-22143.53;;;37.26;22.01
7337;BME280;54510;42.016;23.098;2022-08-04T13:57:06;-22156.47;;;37.75;21.76
7337;BME280;54510;42.016;23.098;2022-08-04T13:59:36;-22166.75;;;38.14;21.30
7337;BME280;54510;42.016;23.098;2022-08-04T14:02:42;-22179.66;;;38.63;21.13
7337;BME280;54510;42.016;23.098;2022-08-04T14:05:14;-22157.69;;;37.79;22.11
7337;BME280;54510;42.016;23.098;2022-08-04T14:07:45;-22168.75;;;38.21;21.04
7337;BME280;54510;42.016;23.098;2022-08-04T14:10:12;-22179.66;;;38.63;21.18
7337;BME280;54510;42.016;23.098;2022-08-04T14:12:45;-22168.75;;;38.21;21.21
7337;BME280;54510;42.016;23.098;2022-08-04T14:15:37;-22173.81;;;38.41;20.55
7337;BME280;54510;42.016;23.098;2022-08-04T14:18:27;-22168.34;;;38.20;21.16
7337;BME280;54510;42.016;23.098;2022-08-04T14:21:02;-22161.53;;;37.94;21.46
7337;BME280;54510;42.016;23.098;2022-08-04T14:23:29;-22166.59;;;38.13;21.04
7337;BME280;54510;42.016;23.098;2022-08-04T14:26:33;-22168.88;;;38.22;21.27
7337;BME280;54510;42.016;23.098;2022-08-04T14:29:14;-22150.47;;;37.52;21.29
7337;BME280;54510;42.016;23.098;2022-08-04T14:31:40;-22165.81;;;38.10;21.08
7337;BME280;54510;42.016;23.098;2022-08-04T14:34:06;-22166.22;;;38.12;21.87
7337;BME280;54510;42.016;23.098;2022-08-04T14:36:39;-22178.06;;;38.57;21.76
7337;BME280;54510;42.016;23.098;2022-08-04T14:39:05;-22168.75;;;38.21;21.30
7337;BME280;54510;42.016;23.098;2022-08-04T14:41:47;-22179.53;;;38.62;21.93
7337;BME280;54510;42.016;23.098;2022-08-04T14:44:13;-22166.59;;;38.13;21.54
7337;BME280;54510;42.016;23.098;2022-08-04T14:46:54;-22158.22;;;37.81;21.23
7337;BME280;54510;42.016;23.098;2022-08-04T14:49:20;-22156.47;;;37.75;22.20
7337;BME280;54510;42.016;23.098;2022-08-04T14:51:59;-22182.72;;;38.75;21.31
7337;BME280;54510;42.016;23.098;2022-08-04T14:54:34;-22161.53;;;37.94;22.04
7337;BME280;54510;42.016;23.098;2022-08-04T14:57:03;-22142.19;;;37.21;22.67
7337;BME280;54510;42.016;23.098;2022-08-04T14:59:48;-22141.00;;;37.16;22.63
7337;BME280;54510;42.016;23.098;2022-08-04T15:02:15;-22138.31;;;37.06;22.84
7337;BME280;54510;42.016;23.098;2022-08-04T15:04:42;-22142.34;;;37.21;23.02
7337;BME280;54510;42.016;23.098;2022-08-04T15:07:08;-22175.81;;;38.48;21.95
7337;BME280;54510;42.016;23.098;2022-08-04T15:09:34;-22168.22;;;38.19;22.18
7337;BME280;54510;42.016;23.098;2022-08-04T15:12:01;-22155.00;;;37.69;22.07
7337;BME280;54510;42.016;23.098;2022-08-04T15:14:29;-22161.53;;;37.94;21.57
7337;BME280;54510;42.016;23.098;2022-08-04T15:16:55;-22163.13;;;38.00;22.38
7337;BME280;54510;42.016;23.098;2022-08-04T15:19:21;-22174.59;;;38.44;21.74
7337;BME280;54510;42.016;23.098;2022-08-04T15:21:47;-22193.09;;;39.14;20.54
7337;BME280;54510;42.016;23.098;2022-08-04T15:24:13;-22197.75;;;39.32;20.29
7337;BME280;54510;42.016;23.098;2022-08-04T15:26:42;-22215.81;;;40.01;20.21
7337;BME280;54510;42.016;23.098;2022-08-04T15:29:15;-22200.69;;;39.43;20.63
7337;BME280;54510;42.016;23.098;2022-08-04T15:31:42;-22219.69;;;40.15;20.57
7337;BME280;54510;42.016;23.098;2022-08-04T15:34:09;-22189.50;;;39.00;20.96
7337;BME280;54510;42.016;23.098;2022-08-04T15:36:50;-22166.22;;;38.12;21.67
7337;BME280;54510;42.016;23.098;2022-08-04T15:39:33;-22173.13;;;38.38;22.31
7337;BME280;54510;42.016;23.098;2022-08-04T15:47:11;-22216.38;;;40.03;20.76
7337;BME280;54510;42.016;23.098;2022-08-04T15:49:37;-22190.84;;;39.05;21.14
7337;BME280;54510;42.016;23.098;2022-08-04T15:52:10;-22198.69;;;39.35;21.03
7337;BME280;54510;42.016;23.098;2022-08-04T15:54:36;-22219.41;;;40.14;20.36
7337;BME280;54510;42.016;23.098;2022-08-04T15:57:04;-22216.38;;;40.03;20.40
7337;BME280;54510;42.016;23.098;2022-08-04T15:59:55;-22264.63;;;41.87;18.61
7337;BME280;54510;42.016;23.098;2022-08-04T16:02:42;-22268.47;;;42.02;18.12
7337;BME280;54510;42.016;23.098;2022-08-04T16:08:08;-22237.72;;;40.84;19.17
7337;BME280;54510;42.016;23.098;2022-08-04T16:10:35;-22281.69;;;42.52;17.31
7337;BME280;54510;42.016;23.098;2022-08-04T16:13:05;-22197.22;;;39.30;20.03
7337;BME280;54510;42.016;23.098;2022-08-04T16:15:55;-22167.00;;;38.15;21.16
7337;BME280;54510;42.016;23.098;2022-08-04T16:21:02;-22132.84;;;36.85;22.77
7337;BME280;54510;42.016;23.098;2022-08-04T16:37:02;-22101.84;;;35.68;25.21
7337;BME280;54510;42.016;23.098;2022-08-04T16:39:28;-22098.09;;;35.53;25.76
7337;BME280;54510;42.016;23.098;2022-08-04T16:41:53;-22086.69;;;35.10;27.05
7337;BME280;54510;42.016;23.098;2022-08-04T16:44:33;-22085.50;;;35.06;26.36
7337;BME280;54510;42.016;23.098;2022-08-04T16:47:02;-22097.69;;;35.52;26.24
7337;BME280;54510;42.016;23.098;2022-08-04T16:49:30;-22081.34;;;34.90;27.09
7337;BME280;54510;42.016;23.098;2022-08-04T16:52:04;-22081.59;;;34.91;27.27
7337;BME280;54510;42.016;23.098;2022-08-04T16:54:35;-22074.22;;;34.63;26.92
7337;BME280;54510;42.016;23.098;2022-08-04T16:57:08;-22068.19;;;34.40;27.18